Terminal Aerodrome Forecast
Issued by NWS

Home | Current Version | Previous Version | Graphics & Text | Print | Product List | Glossary On
Versions: 1 2 3 4 5 6 7 8 9 10 11 12 13 14 15 16 17 18 19
000
FTUS43 KICT 171126
TAFHUT
TAF
KHUT 171126Z 1712/1812 18015G23KT P6SM OVC010
     FM171400 19015G23KT P6SM BKN020
     FM171500 19015G23KT P6SM SCT020
     FM171700 21014KT P6SM SCT250
     FM180000 19009KT P6SM FEW250
     FM180300 23005KT P6SM FEW250
     FM180630 34027G36KT P6SM BKN030=

USA.gov is the U.S. government's official web portal to all federal, state and local government web resources and services.